.
WxDataArchive / Data Records for 2006-03-10
2006-03-09 March 2006 2006-03-11

Data Records for Friday, 10 March 2006

Time	Temp	Chill	HIndex	Humid	Dewpt	 Wind 	HiWind	WindDir	Rain 	Barom 
-----	----	-----	------	-----	-----	------	------	-------	-----	----- 
00:00	52.9	52.9	52.9	89	49.7	4	10	90	0.00	29.152 
00:05	52.9	52.9	52.9	89	49.7	3	6	90	0.00	29.152 
00:10	52.9	52.9	52.9	88	49.4	4	11	112	0.00	29.152 
00:15	52.9	52.9	52.9	88	49.4	4	7	112	0.01	29.146 
00:20	52.9	52.9	52.9	89	49.7	4	9	90	0.00	29.146 
00:25	52.9	52.9	52.9	89	49.7	4	9	90	0.01	29.146 
00:30	52.9	52.9	52.9	89	49.7	4	8	90	0.01	29.134 
00:35	53.1	53.1	53.1	88	49.6	5	15	90	0.00	29.134 
00:40	53.2	53.2	53.2	88	49.7	3	10	90	0.01	29.134 
00:45	53.2	53.2	53.2	88	49.7	4	6	90	0.01	29.121 
00:50	53.2	53.2	53.2	88	49.7	4	12	90	0.01	29.121 
00:55	53.2	53.2	53.2	88	49.7	4	10	90	0.00	29.121 
01:00	53.2	53.2	53.2	88	49.7	4	11	112	0.01	29.111 
01:05	53.3	53.3	53.3	87	49.5	5	12	90	0.00	29.111 
01:10	53.5	53.5	53.5	87	49.7	4	11	90	0.00	29.111 
01:15	53.6	53.6	53.6	86	49.5	4	17	90	0.00	29.105 
01:20	53.6	53.6	53.6	86	49.5	4	7	90	0.00	29.105 
01:25	53.5	53.5	53.5	86	49.4	3	8	90	0.00	29.105 
01:30	53.6	53.6	53.6	86	49.5	3	10	90	0.00	29.107 
01:35	53.6	53.6	53.6	86	49.5	3	13	68	0.00	29.107 
01:40	53.6	53.6	53.6	86	49.5	3	7	68	0.00	29.107 
01:45	53.6	53.6	53.6	85	49.2	3	7	90	0.00	29.105 
01:50	53.6	53.6	53.6	85	49.2	3	6	90	0.00	29.105 
01:55	53.6	53.6	53.6	85	49.2	2	6	90	0.00	29.105 
02:00	53.8	53.8	53.8	85	49.4	3	11	22	0.00	29.104 
02:05	53.9	53.9	53.9	84	49.2	2	9	270	0.00	29.104 
02:10	53.9	53.9	53.9	84	49.2	3	6	68	0.00	29.104 
02:15	53.9	53.9	53.9	84	49.2	2	7	248	0.00	29.108 
02:20	53.9	53.9	53.9	84	49.2	3	10	248	0.00	29.108 
02:25	54.1	54.1	54.1	84	49.4	3	10	270	0.00	29.108 
02:30	53.9	53.9	53.9	84	49.2	4	9	248	0.00	29.109 
02:35	53.9	53.9	53.9	84	49.2	4	8	248	0.00	29.109 
02:40	53.8	53.8	53.8	85	49.4	5	11	248	0.00	29.109 
02:45	53.6	53.6	53.6	87	49.8	7	16	248	0.00	29.120 
02:50	53.3	53.3	53.3	88	49.8	6	13	248	0.01	29.120 
02:55	53.1	53.1	53.1	88	49.6	6	13	270	0.00	29.120 
03:00	53.1	53.1	53.1	88	49.6	5	10	248	0.00	29.133 
03:05	53.2	53.2	53.2	88	49.7	6	13	248	0.00	29.133 
03:10	53.2	53.2	53.2	88	49.7	5	11	270	0.00	29.133 
03:15	53.2	53.2	53.2	87	49.4	6	13	248	0.00	29.142 
03:20	53.3	53.3	53.3	86	49.2	7	15	248	0.00	29.142 
03:25	53.5	53.5	53.5	86	49.4	6	13	270	0.00	29.142 
03:30	53.5	53.5	53.5	86	49.4	6	14	270	0.00	29.153 
03:35	53.5	53.5	53.5	86	49.4	5	15	248	0.00	29.153 
03:40	53.5	53.5	53.5	86	49.4	6	15	248	0.00	29.153 
03:45	53.5	53.5	53.5	86	49.4	6	15	270	0.00	29.167 
03:50	53.5	53.5	53.5	87	49.7	7	16	270	0.00	29.167 
03:55	53.3	53.3	53.3	87	49.5	7	14	248	0.00	29.167 
04:00	53.2	53.2	53.2	88	49.7	8	15	248	0.00	29.184 
04:05	53.1	53.1	53.1	88	49.6	7	19	270	0.00	29.184 
04:10	52.8	52.8	52.8	89	49.6	6	13	270	0.00	29.184 
04:15	52.2	52.2	52.2	88	48.8	9	23	270	0.00	29.204 
04:20	51.7	51.7	51.7	87	48.0	8	22	270	0.00	29.204 
04:25	51.4	51.4	51.4	87	47.7	7	17	270	0.00	29.204 
04:30	51.3	51.3	51.3	87	47.6	5	13	270	0.00	29.219 
04:35	51.1	51.1	51.1	86	47.1	4	7	270	0.00	29.219 
04:40	50.8	50.8	50.8	84	46.1	4	9	270	0.00	29.219 
04:45	50.5	50.5	50.5	84	45.8	4	10	292	0.00	29.247 
04:50	50.4	50.4	50.4	84	45.7	4	11	270	0.00	29.247 
04:55	49.9	49.9	49.9	83	44.9	3	9	270	0.00	29.247 
05:00	49.5	47.6	49.5	83	44.6	5	13	270	0.00	29.276 
05:05	49.2	47.3	49.2	83	44.3	5	8	270	0.00	29.276 
05:10	48.8	46.8	48.8	84	44.2	5	14	270	0.00	29.276 
05:15	48.2	46.1	48.2	85	43.9	5	11	270	0.00	29.315 
05:20	47.9	45.8	47.9	85	43.6	5	13	270	0.00	29.315 
05:25	47.4	45.9	47.4	86	43.4	4	9	270	0.00	29.315 
05:30	47.1	45.5	47.1	86	43.1	4	9	270	0.00	29.331 
05:35	47.0	44.7	47.0	86	43.0	5	10	270	0.00	29.331 
05:40	46.5	43.5	46.5	87	42.8	6	13	270	0.00	29.331 
05:45	46.0	42.9	46.0	87	42.4	6	12	270	0.00	29.375 
05:50	45.1	41.8	45.1	87	41.5	6	12	270	0.00	29.375 
05:55	44.3	40.9	44.3	88	41.0	6	17	270	0.00	29.375 
06:00	44.1	40.6	44.1	88	40.8	6	13	270	0.00	29.413 
06:05	43.6	40.0	43.6	88	40.3	6	14	270	0.00	29.413 
06:10	43.2	40.2	43.2	89	40.2	5	12	270	0.00	29.413 
06:15	42.6	39.5	42.6	89	39.6	5	17	270	0.00	29.429 
06:20	42.3	40.0	42.3	89	39.3	4	10	270	0.00	29.429 
06:25	42.2	39.1	42.2	89	39.2	5	11	270	0.00	29.429 
06:30	42.2	39.9	42.2	89	39.2	4	11	270	0.00	29.457 
06:35	42.1	42.1	42.1	90	39.4	3	6	270	0.00	29.457 
06:40	41.9	39.5	41.9	90	39.2	4	7	270	0.00	29.457 
06:45	41.9	39.5	41.9	90	39.2	4	7	270	0.00	29.493 
06:50	41.8	37.3	41.8	89	38.8	7	14	270	0.00	29.493 
06:55	41.6	39.2	41.6	90	38.9	4	6	270	0.00	29.493 
07:00	41.6	38.4	41.6	89	38.6	5	12	270	0.00	29.512 
07:05	41.5	39.1	41.5	90	38.8	4	9	270	0.00	29.512 
07:10	41.3	37.3	41.3	90	38.6	6	12	248	0.00	29.512 
07:15	41.3	38.0	41.3	91	38.9	5	15	270	0.00	29.533 
07:20	41.2	37.9	41.2	91	38.8	5	11	248	0.00	29.533 
07:25	41.2	38.7	41.2	91	38.8	4	13	270	0.00	29.533 
07:30	41.2	37.9	41.2	90	38.5	5	18	270	0.00	29.559 
07:35	41.1	38.6	41.1	90	38.4	4	12	270	0.00	29.559 
07:40	41.1	41.1	41.1	90	38.4	3	10	270	0.00	29.559 
07:45	41.2	41.2	41.2	90	38.5	3	11	270	0.00	29.575 
07:50	41.1	38.6	41.1	89	38.1	4	10	270	0.00	29.575 
07:55	41.1	41.1	41.1	90	38.4	3	11	270	0.00	29.575 
08:00	41.1	37.8	41.1	90	38.4	5	12	270	0.00	29.592 
08:05	40.9	38.4	40.9	90	38.2	4	10	270	0.00	29.592 
08:10	41.1	41.1	41.1	90	38.4	3	9	248	0.00	29.592 
08:15	40.9	37.5	40.9	90	38.2	5	13	270	0.00	29.607 
08:20	40.6	37.2	40.6	90	37.9	5	10	270	0.00	29.607 
08:25	40.5	40.5	40.5	91	38.1	3	8	270	0.00	29.607 
08:30	40.5	37.9	40.5	91	38.1	4	13	270	0.00	29.624 
08:35	40.3	40.3	40.3	91	37.9	3	11	270	0.00	29.624 
08:40	40.3	40.3	40.3	91	37.9	3	9	270	0.00	29.624 
08:45	40.3	37.7	40.3	91	37.9	4	10	270	0.00	29.642 
08:50	40.3	40.3	40.3	91	37.9	3	9	270	0.00	29.642 
08:55	40.1	35.9	40.1	91	37.7	6	15	270	0.00	29.642 
09:00	40.1	37.4	40.1	91	37.7	4	12	270	0.00	29.663 
09:05	40.1	37.4	40.1	91	37.7	4	10	270	0.00	29.663 
09:10	40.1	40.1	40.1	91	37.7	3	10	270	0.00	29.663 
09:15	40.1	37.4	40.1	91	37.7	4	10	270	0.00	29.674 
09:20	40.1	40.1	40.1	91	37.7	3	7	270	0.00	29.674 
09:25	40.1	37.4	40.1	91	37.7	4	9	270	0.00	29.674 
09:30	40.1	37.4	40.1	91	37.7	4	11	248	0.00	29.690 
09:35	40.1	37.4	40.1	91	37.7	4	15	248	0.00	29.690 
09:40	40.2	40.2	40.2	91	37.8	3	7	270	0.00	29.690 
09:45	40.3	40.3	40.3	91	37.9	2	7	248	0.00	29.702 
09:50	40.3	40.3	40.3	90	37.6	3	7	270	0.00	29.702 
09:55	40.3	37.7	40.3	89	37.3	4	7	270	0.00	29.702 
10:00	40.3	37.7	40.3	89	37.3	4	10	270	0.00	29.714 
10:05	40.5	37.9	40.5	89	37.5	4	10	270	0.00	29.714 
10:10	40.5	37.9	40.5	89	37.5	4	11	270	0.00	29.714 
10:15	40.6	40.6	40.6	88	37.3	3	8	248	0.00	29.726 
10:20	40.6	40.6	40.6	88	37.3	3	6	270	0.00	29.726 
10:25	40.9	40.9	40.9	88	37.6	3	10	270	0.00	29.726 
10:30	41.1	41.1	41.1	88	37.8	3	7	270	0.00	29.735 
10:35	41.2	38.7	41.2	87	37.6	4	11	270	0.00	29.735 
10:40	41.3	41.3	41.3	87	37.7	3	7	270	0.00	29.735 
10:45	41.6	41.6	41.6	86	37.7	2	6	270	0.00	29.739 
10:50	41.6	41.6	41.6	86	37.7	3	9	270	0.00	29.739 
10:55	41.6	41.6	41.6	85	37.4	3	7	270	0.00	29.739 
11:00	41.8	41.8	41.8	85	37.6	3	7	270	0.00	29.756 
11:05	41.9	41.9	41.9	85	37.7	3	6	270	0.00	29.756 
11:10	42.1	42.1	42.1	84	37.6	2	6	270	0.00	29.756 
11:15	41.9	39.5	41.9	84	37.4	4	9	270	0.00	29.766 
11:20	41.9	41.9	41.9	84	37.4	2	6	270	0.00	29.766 
11:25	42.1	39.7	42.1	84	37.6	4	10	248	0.00	29.766 
11:30	41.9	38.7	41.9	84	37.4	5	12	270	0.00	29.779 
11:35	42.1	39.7	42.1	84	37.6	4	10	270	0.00	29.779 
11:40	42.2	42.2	42.2	84	37.7	3	10	270	0.00	29.779 
11:45	42.3	40.0	42.3	84	37.8	4	11	270	0.00	29.792 
11:50	42.3	42.3	42.3	84	37.8	3	9	270	0.00	29.792 
11:55	42.5	42.5	42.5	84	38.0	2	6	270	0.00	29.792 
12:00	42.5	42.5	42.5	83	37.7	2	4	270	0.00	29.805 
12:05	42.5	42.5	42.5	84	38.0	2	7	270	0.00	29.805 
12:10	42.3	40.0	42.3	83	37.5	4	10	270	0.00	29.805 
12:15	42.5	42.5	42.5	83	37.7	3	6	270	0.00	29.802 
12:20	42.8	42.8	42.8	83	38.0	2	4	270	0.00	29.802 
12:25	42.8	42.8	42.8	82	37.7	3	6	270	0.00	29.802 
12:30	43.2	43.2	43.2	83	38.4	2	4	248	0.00	29.810 
12:35	43.3	43.3	43.3	83	38.5	3	9	248	0.00	29.810 
12:40	43.8	43.8	43.8	82	38.7	3	10	270	0.00	29.810 
12:45	43.9	43.9	43.9	81	38.5	2	5	270	0.00	29.810 
12:50	44.2	44.2	44.2	81	38.7	2	7	248	0.00	29.810 
12:55	44.3	44.3	44.3	81	38.8	3	9	270	0.00	29.810 
13:00	44.6	44.6	44.6	80	38.8	2	3	292	0.00	29.808 
13:05	44.8	44.8	44.8	80	39.0	2	6	248	0.00	29.808 
13:10	45.1	45.1	45.1	79	39.0	2	4	270	0.00	29.808 
13:15	44.9	44.9	44.9	78	38.5	2	6	270	0.00	29.811 
13:20	44.8	44.8	44.8	79	38.7	2	6	270	0.00	29.811 
13:25	44.6	44.6	44.6	79	38.5	2	6	270	0.00	29.811 
13:30	44.9	44.9	44.9	79	38.8	2	5	248	0.00	29.820 
13:35	44.9	43.0	44.9	79	38.8	4	6	248	0.00	29.820 
13:40	45.1	45.1	45.1	79	39.0	3	7	248	0.00	29.820 
13:45	45.2	45.2	45.2	79	39.1	2	4	270	0.00	29.824 
13:50	45.2	45.2	45.2	79	39.1	3	6	270	0.00	29.824 
13:55	45.2	45.2	45.2	79	39.1	2	4	270	0.00	29.824 
14:00	45.4	45.4	45.4	78	38.9	2	6	270	0.00	29.827 
14:05	45.4	45.4	45.4	79	39.3	2	5	248	0.00	29.827 
14:10	45.4	45.4	45.4	78	38.9	3	10	248	0.00	29.827 
14:15	45.4	45.4	45.4	79	39.3	2	4	270	0.00	29.835 
14:20	45.5	45.5	45.5	79	39.4	2	4	248	0.00	29.835 
14:25	45.4	45.4	45.4	79	39.3	2	4	270	0.00	29.835 
14:30	45.4	45.4	45.4	79	39.3	2	6	270	0.00	29.841 
14:35	45.5	45.5	45.5	79	39.4	2	4	248	0.00	29.841 
14:40	45.8	45.8	45.8	78	39.3	2	4	248	0.00	29.841 
14:45	46.0	46.0	46.0	78	39.5	2	4	248	0.00	29.844 
14:50	46.1	46.1	46.1	78	39.6	2	5	248	0.00	29.844 
14:55	46.1	46.1	46.1	79	40.0	2	6	248	0.00	29.844 
15:00	46.1	46.1	46.1	79	40.0	2	4	248	0.00	29.854 
15:05	46.1	46.1	46.1	79	40.0	3	6	248	0.00	29.854 
15:10	46.0	46.0	46.0	79	39.9	3	8	248	0.00	29.854 
15:15	46.0	46.0	46.0	80	40.2	2	6	248	0.00	29.855 
15:20	46.1	46.1	46.1	79	40.0	3	8	270	0.00	29.855 
15:25	46.0	46.0	46.0	79	39.9	3	6	248	0.00	29.855 
15:30	46.1	46.1	46.1	80	40.3	2	6	248	0.00	29.861 
15:35	46.2	46.2	46.2	80	40.4	1	4	248	0.00	29.861 
15:40	46.4	46.4	46.4	79	40.2	2	4	248	0.00	29.861 
15:45	46.5	46.5	46.5	79	40.3	2	4	248	0.00	29.863 
15:50	46.5	46.5	46.5	79	40.3	1	4	248	0.00	29.863 
15:55	46.5	46.5	46.5	78	40.0	2	5	248	0.00	29.863 
16:00	46.4	46.4	46.4	78	39.9	2	5	248	0.00	29.866 
16:05	46.4	46.4	46.4	78	39.9	2	6	248	0.00	29.866 
16:10	46.5	46.5	46.5	78	40.0	2	4	248	0.00	29.866 
16:15	46.5	46.5	46.5	77	39.7	1	3	248	0.00	29.874 
16:20	46.7	46.7	46.7	77	39.9	1	3	248	0.00	29.874 
16:25	46.7	46.7	46.7	77	39.9	2	4	248	0.00	29.874 
16:30	46.5	46.5	46.5	77	39.7	2	4	248	0.00	29.887 
16:35	46.5	46.5	46.5	77	39.7	1	3	248	0.00	29.887 
16:40	46.4	46.4	46.4	77	39.6	2	6	248	0.00	29.887 
16:45	46.4	46.4	46.4	77	39.6	2	4	270	0.00	29.897 
16:50	46.5	46.5	46.5	77	39.7	1	3	248	0.00	29.897 
16:55	46.5	46.5	46.5	77	39.7	2	4	248	0.00	29.897 
17:00	46.5	46.5	46.5	76	39.3	2	4	248	0.00	29.903 
17:05	46.7	46.7	46.7	76	39.5	1	4	248	0.00	29.903 
17:10	46.7	46.7	46.7	76	39.5	2	5	248	0.00	29.903 
17:15	46.7	46.7	46.7	76	39.5	1	4	248	0.00	29.916 
17:20	46.7	46.7	46.7	74	38.9	2	7	248	0.00	29.916 
17:25	46.7	46.7	46.7	74	38.9	2	6	248	0.00	29.916 
17:30	46.7	46.7	46.7	74	38.9	1	3	248	0.00	29.925 
17:35	46.7	46.7	46.7	74	38.9	1	4	225	0.00	29.925 
17:40	46.7	46.7	46.7	74	38.9	1	4	225	0.00	29.925 
17:45	46.7	46.7	46.7	73	38.5	2	5	248	0.00	29.926 
17:50	46.7	46.7	46.7	73	38.5	1	3	248	0.00	29.926 
17:55	46.7	46.7	46.7	73	38.5	1	3	248	0.00	29.926 
18:00	46.7	46.7	46.7	73	38.5	1	3	248	0.00	29.930 
18:05	46.7	46.7	46.7	74	38.9	1	3	248	0.00	29.930 
18:10	46.5	46.5	46.5	74	38.7	1	4	248	0.00	29.930 
18:15	46.5	46.5	46.5	74	38.7	2	3	248	0.00	29.940 
18:20	46.5	46.5	46.5	75	39.0	1	3	248	0.00	29.940 
18:25	46.5	46.5	46.5	76	39.3	1	3	248	0.00	29.940 
18:30	46.5	46.5	46.5	75	39.0	0	3	248	0.00	29.945 
18:35	46.4	46.4	46.4	75	38.9	1	3	248	0.00	29.945 
18:40	46.4	46.4	46.4	73	38.2	1	3	248	0.00	29.945 
18:45	46.4	46.4	46.4	73	38.2	1	3	248	0.00	29.946 
18:50	46.4	46.4	46.4	73	38.2	1	2	248	0.00	29.946 
18:55	46.4	46.4	46.4	74	38.6	1	2	248	0.00	29.946 
19:00	46.4	46.4	46.4	76	39.3	0	2	248	0.00	29.959 
19:05	46.2	46.2	46.2	79	40.1	0	2	180	0.00	29.959 
19:10	46.1	46.1	46.1	81	40.6	1	2	158	0.00	29.959 
19:15	46.0	46.0	46.0	81	40.5	0	1	180	0.00	29.967 
19:20	45.8	45.8	45.8	82	40.6	0	2	248	0.00	29.967 
19:25	45.7	45.7	45.7	82	40.5	0	1	248	0.00	29.967 
19:30	45.4	45.4	45.4	82	40.2	0	1	248	0.00	29.964 
19:35	45.1	45.1	45.1	83	40.3	0	1	248	0.00	29.964 
19:40	44.9	44.9	44.9	83	40.1	1	3	135	0.00	29.964 
19:45	44.8	44.8	44.8	83	40.0	0	2	158	0.00	29.967 
19:50	44.8	44.8	44.8	84	40.3	0	2	158	0.00	29.967 
19:55	44.8	44.8	44.8	84	40.3	0	1	158	0.00	29.967 
20:00	44.8	44.8	44.8	84	40.3	0	1	158	0.00	29.976 
20:05	44.6	44.6	44.6	84	40.1	0	2	158	0.00	29.976 
20:10	44.8	44.8	44.8	83	40.0	1	2	202	0.00	29.976 
20:15	44.8	44.8	44.8	83	40.0	0	1	202	0.00	29.989 
20:20	44.8	44.8	44.8	79	38.7	0	2	248	0.00	29.989 
20:25	44.9	44.9	44.9	79	38.8	0	1	248	0.00	29.989 
20:30	45.1	45.1	45.1	79	39.0	0	1	248	0.00	29.999 
20:35	45.1	45.1	45.1	78	38.7	0	1	248	0.00	29.999 
20:40	45.1	45.1	45.1	78	38.7	0	6	248	0.00	29.999 
20:45	44.9	44.9	44.9	77	38.1	1	2	112	0.00	29.997 
20:50	44.6	44.6	44.6	77	37.8	0	1	112	0.00	29.997 
20:55	44.3	44.3	44.3	77	37.6	0	0	---	0.00	29.997 
21:00	43.9	43.9	43.9	77	37.2	0	0	---	0.00	30.010 
21:05	43.3	43.3	43.3	79	37.2	0	0	---	0.00	30.010 
21:10	42.8	42.8	42.8	80	37.1	0	0	---	0.00	30.010 
21:15	42.2	42.2	42.2	82	37.1	0	1	112	0.00	30.006 
21:20	41.6	41.6	41.6	83	36.8	0	1	112	0.00	30.006 
21:25	41.2	41.2	41.2	83	36.4	0	0	---	0.00	30.006 
21:30	40.6	40.6	40.6	84	36.2	0	0	---	0.00	30.018 
21:35	40.3	40.3	40.3	84	35.9	0	0	---	0.00	30.018 
21:40	39.9	39.9	39.9	85	35.8	0	0	---	0.00	30.018 
21:45	39.5	39.5	39.5	85	35.4	0	0	---	0.00	30.022 
21:50	39.2	39.2	39.2	86	35.4	0	0	---	0.00	30.022 
21:55	38.9	38.9	38.9	87	35.4	0	0	---	0.00	30.022 
22:00	38.6	38.6	38.6	88	35.4	0	0	---	0.00	30.016 
22:05	38.6	38.6	38.6	89	35.6	0	0	---	0.00	30.016 
22:10	38.5	38.5	38.5	89	35.5	0	0	---	0.00	30.016 
22:15	38.3	38.3	38.3	89	35.3	0	0	---	0.00	30.023 
22:20	38.0	38.0	38.0	89	35.1	0	0	---	0.00	30.023 
22:25	38.0	38.0	38.0	90	35.3	0	0	---	0.00	30.023 
22:30	37.9	37.9	37.9	90	35.2	0	0	---	0.00	30.030 
22:35	37.8	37.8	37.8	90	35.1	0	0	---	0.00	30.030 
22:40	37.5	37.5	37.5	90	34.8	0	0	---	0.00	30.030 
22:45	37.5	37.5	37.5	91	35.1	0	0	---	0.00	30.033 
22:50	37.3	37.3	37.3	91	34.9	0	0	---	0.00	30.033 
22:55	37.2	37.2	37.2	91	34.8	0	0	---	0.00	30.033 
23:00	37.0	37.0	37.0	92	34.9	0	0	---	0.00	30.031 
23:05	37.2	37.2	37.2	92	35.1	0	0	---	0.00	30.031 
23:10	37.0	37.0	37.0	92	34.9	0	0	---	0.00	30.031 
23:15	37.2	37.2	37.2	92	35.1	0	1	112	0.00	30.021 
23:20	37.3	37.3	37.3	92	35.2	0	0	---	0.00	30.021 
23:25	37.6	37.6	37.6	93	35.8	0	1	112	0.00	30.021 
23:30	37.8	37.8	37.8	93	36.0	0	0	---	0.00	30.027 
23:35	37.6	37.6	37.6	93	35.8	0	0	---	0.00	30.027 
23:40	37.3	37.3	37.3	93	35.5	0	0	---	0.00	30.027 
23:45	37.2	37.2	37.2	93	35.4	0	0	---	0.00	30.032 
23:50	37.0	37.0	37.0	93	35.2	0	0	---	0.00	30.032 
23:55	36.8	36.8	36.8	93	35.0	0	0	---	0.00	30.032 

CoCoRaHS
IN-AL-39
A2 Web Hosting
Creative Commons License
GoDaddy
Look for:

loaded 2017-10-17 09:19:35 • last modified 2010-11-18 10:43:29
Privacy PolicyDisclaimer
• wx.awcolley.com is powered by PmWiki v.2002016 •
• all content (unless otherwise noted) © 2017 A W Colley